Time;durP1;ratioP1;P1;durP2;ratioP2;P2;SDS_P1;SDS_P2;PMS_P1;PMS_P2;Temp;Humidity;BMP_temperature;BMP_pressure;BME280_temperature;BME280_humidity;BME280_pressure;Samples;Min_cycle;Max_cycle;Signal;HPM_P1;HPM_P2
2022/08/22 04:02:15;;;;;;;7.43;5.93;;;15.70;99.90;;;;;;5328847;23;20507;-75
2022/08/22 04:05:14;;;;;;;12.13;6.67;;;15.70;99.90;;;;;;4992216;28;21018;-75
2022/08/22 04:08:10;;;;;;;8.30;5.47;;;15.60;99.90;;;;;;4992658;28;20482;-75
2022/08/22 04:11:15;;;;;;;11.57;6.43;;;15.60;99.90;;;;;;4989058;28;20487;-75
2022/08/22 04:14:34;;;;;;;7.70;5.70;;;15.60;99.90;;;;;;4992554;28;20475;-75
2022/08/22 04:17:43;;;;;;;7.93;5.90;;;15.50;99.90;;;;;;4968234;28;21018;-75
2022/08/22 04:20:39;;;;;;;7.30;5.40;;;15.50;99.90;;;;;;4992316;28;20496;-75
2022/08/22 04:23:32;;;;;;;7.70;5.27;;;15.50;99.90;;;;;;4992102;28;20460;-75
2022/08/22 04:26:04;;;;;;;6.20;4.90;;;15.50;99.90;;;;;;4991988;28;20458;-75
2022/08/22 04:28:36;;;;;;;8.33;5.60;;;15.50;99.90;;;;;;4992155;28;20818;-75
2022/08/22 04:31:07;;;;;;;6.53;5.17;;;15.50;99.90;;;;;;4992334;28;20472;-75
2022/08/22 04:33:40;;;;;;;6.50;5.10;;;15.40;99.90;;;;;;4992323;28;20460;-75
2022/08/22 04:36:15;;;;;;;7.23;6.20;;;15.40;99.90;;;;;;4992237;28;20440;-75
2022/08/22 04:38:46;;;;;;;7.63;6.07;;;15.40;99.90;;;;;;4992005;28;20933;-75
2022/08/22 04:41:18;;;;;;;8.63;6.40;;;15.40;99.90;;;;;;4992187;28;20491;-75
2022/08/22 04:43:50;;;;;;;6.83;5.97;;;15.40;99.90;;;;;;4992098;28;20451;-75
2022/08/22 04:46:25;;;;;;;11.00;6.27;;;15.40;99.90;;;;;;4992170;28;20455;-75
2022/08/22 04:48:58;;;;;;;8.30;5.80;;;15.40;99.90;;;;;;4991787;28;20573;-75
2022/08/22 04:51:31;;;;;;;8.33;6.17;;;15.30;99.90;;;;;;4992125;28;20472;-75
2022/08/22 04:54:30;;;;;;;9.87;6.13;;;15.30;99.90;;;;;;4992196;28;20440;-75
2022/08/22 04:57:15;;;;;;;7.70;6.10;;;15.30;99.90;;;;;;4991995;28;20455;-75
2022/08/22 04:59:43;;;;;;;7.57;5.93;;;15.30;99.90;;;;;;4992183;28;20480;-75
2022/08/22 05:02:11;;;;;;;6.73;5.73;;;15.30;99.90;;;;;;4991804;28;20487;-75
2022/08/22 05:04:43;;;;;;;8.67;5.90;;;15.30;99.90;;;;;;4991866;28;20451;-76
2022/08/22 05:07:15;;;;;;;9.07;6.50;;;15.30;99.90;;;;;;4991721;28;20899;-75
2022/08/22 05:09:45;;;;;;;11.77;5.90;;;15.30;99.90;;;;;;4992229;28;20793;-75
2022/08/22 05:12:18;;;;;;;6.80;5.80;;;15.20;99.90;;;;;;4995550;28;20486;-75
2022/08/22 05:14:50;;;;;;;7.87;5.97;;;15.20;99.90;;;;;;4995198;28;20939;-76
2022/08/22 05:17:22;;;;;;;9.70;6.27;;;15.20;99.90;;;;;;4995516;28;20446;-76
2022/08/22 05:19:54;;;;;;;8.00;6.27;;;15.20;99.90;;;;;;4995221;28;20795;-75
2022/08/22 05:22:27;;;;;;;10.13;6.17;;;15.20;99.90;;;;;;4994820;28;20475;-77
2022/08/22 05:24:57;;;;;;;11.17;6.30;;;15.20;99.90;;;;;;4994842;28;20459;-75
2022/08/22 05:27:28;;;;;;;8.47;5.67;;;15.10;99.90;;;;;;4995041;28;20952;-75
2022/08/22 05:30:02;;;;;;;9.13;6.23;;;15.10;99.90;;;;;;4995162;28;20923;-76
2022/08/22 05:32:35;;;;;;;8.10;6.10;;;15.10;99.90;;;;;;4994815;28;20886;-76
2022/08/22 05:35:08;;;;;;;8.20;6.23;;;15.20;99.90;;;;;;4994966;28;20463;-76
2022/08/22 05:37:40;;;;;;;8.73;6.77;;;15.20;99.90;;;;;;4994904;28;20964;-76
2022/08/22 05:40:11;;;;;;;10.70;7.13;;;15.20;99.90;;;;;;4994830;28;20852;-76
2022/08/22 05:42:38;;;;;;;7.90;5.50;;;15.20;99.90;;;;;;4995033;28;20830;-76
2022/08/22 05:45:07;;;;;;;8.70;6.33;;;15.20;99.90;;;;;;4994328;28;20466;-76
2022/08/22 05:47:38;;;;;;;8.97;6.03;;;15.30;99.90;;;;;;4994981;28;20460;-77
2022/08/22 05:50:10;;;;;;;9.63;6.20;;;15.30;99.90;;;;;;4994666;28;20467;-76
2022/08/22 05:52:57;;;;;;;6.73;5.93;;;15.30;99.90;;;;;;4994774;28;20526;-76
2022/08/22 05:55:29;;;;;;;11.00;6.60;;;15.40;99.90;;;;;;4994181;28;20850;-76
2022/08/22 05:58:23;;;;;;;8.57;6.83;;;15.40;99.90;;;;;;4994836;28;20467;-78
2022/08/22 06:00:59;;;;;;;8.70;6.30;;;15.40;99.90;;;;;;4993991;28;20495;-77
2022/08/22 06:03:30;;;;;;;7.37;6.03;;;15.40;99.90;;;;;;4994413;28;20985;-76
2022/08/22 06:06:06;;;;;;;8.53;6.17;;;15.50;99.90;;;;;;4994282;28;20456;-76
2022/08/22 06:08:37;;;;;;;7.70;6.17;;;15.60;99.90;;;;;;4994716;28;20456;-75
2022/08/22 06:11:09;;;;;;;8.00;6.30;;;15.50;99.90;;;;;;4994452;28;20472;-76
2022/08/22 06:13:38;;;;;;;11.40;7.13;;;15.60;99.90;;;;;;4994353;28;20467;-76
2022/08/22 06:16:13;;;;;;;10.10;7.30;;;15.60;99.90;;;;;;4994337;28;20830;-76
2022/08/22 06:18:42;;;;;;;9.10;6.00;;;15.60;99.90;;;;;;4994093;28;20970;-76
2022/08/22 06:21:17;;;;;;;7.20;6.30;;;15.70;99.90;;;;;;4993827;28;20502;-76
2022/08/22 06:23:49;;;;;;;10.80;6.90;;;15.70;99.90;;;;;;4994233;28;20621;-76
2022/08/22 06:26:19;;;;;;;6.63;5.97;;;15.70;99.90;;;;;;4993782;28;20441;-76
2022/08/22 06:28:49;;;;;;;9.53;6.77;;;15.70;99.90;;;;;;4994311;28;20467;-76
2022/08/22 06:31:21;;;;;;;12.20;6.33;;;15.80;99.90;;;;;;4994248;28;20472;-76
2022/08/22 06:34:00;;;;;;;8.10;6.13;;;15.80;99.90;;;;;;4994372;28;20455;-76
2022/08/22 06:36:31;;;;;;;8.73;6.63;;;15.80;99.90;;;;;;4994018;28;20813;-76
2022/08/22 06:39:06;;;;;;;7.53;6.23;;;15.80;99.90;;;;;;4993906;28;20456;-76
2022/08/22 06:41:35;;;;;;;8.77;7.10;;;15.90;99.90;;;;;;4993779;28;20501;-76
2022/08/22 06:44:04;;;;;;;8.30;6.93;;;15.90;99.90;;;;;;4993667;28;20560;-76
2022/08/22 06:46:36;;;;;;;10.93;6.90;;;15.90;99.90;;;;;;4993919;28;20455;-76
2022/08/22 06:49:05;;;;;;;9.10;6.63;;;16.00;99.90;;;;;;4994161;28;20947;-76
2022/08/22 06:51:36;;;;;;;10.43;6.40;;;16.10;99.90;;;;;;4993718;28;20834;-76
2022/08/22 06:54:07;;;;;;;7.03;6.13;;;16.10;99.90;;;;;;4993513;28;20479;-76
2022/08/22 06:56:38;;;;;;;8.07;5.90;;;16.20;99.90;;;;;;4993913;28;20474;-77
2022/08/22 06:59:12;;;;;;;8.20;5.50;;;16.30;99.90;;;;;;4993807;28;20444;-76
2022/08/22 07:01:45;;;;;;;8.87;5.80;;;16.40;99.90;;;;;;4993009;28;20506;-76
2022/08/22 07:04:12;;;;;;;8.50;6.27;;;16.50;99.90;;;;;;4992945;28;20460;-77
2022/08/22 07:06:42;;;;;;;7.60;5.73;;;16.60;99.90;;;;;;4993516;28;20466;-76
2022/08/22 07:09:19;;;;;;;7.07;5.30;;;16.70;99.90;;;;;;4993347;28;20467;-76
2022/08/22 07:11:47;;;;;;;8.70;5.50;;;16.70;99.90;;;;;;4993220;28;20473;-76
2022/08/22 07:14:17;;;;;;;8.97;6.07;;;16.90;99.90;;;;;;4992956;28;20517;-76
2022/08/22 07:16:48;;;;;;;6.33;4.90;;;16.90;99.90;;;;;;4992830;28;20952;-76
2022/08/22 07:19:25;;;;;;;7.30;5.27;;;17.00;99.90;;;;;;4992984;28;20491;-76
2022/08/22 07:21:53;;;;;;;6.60;5.13;;;17.20;99.90;;;;;;4992863;28;20495;-76
2022/08/22 07:24:23;;;;;;;6.77;4.97;;;17.20;99.90;;;;;;4992768;28;20459;-76
2022/08/22 07:27:04;;;;;;;5.50;4.57;;;17.30;99.90;;;;;;4993289;28;20436;-76
2022/08/22 07:29:41;;;;;;;7.30;5.10;;;17.40;99.90;;;;;;4993105;28;20456;-76
2022/08/22 07:32:12;;;;;;;7.50;4.60;;;17.60;99.90;;;;;;4992565;28;20486;-76
2022/08/22 07:35:02;;;;;;;7.37;4.83;;;17.70;99.90;;;;;;4992596;28;20469;-78
2022/08/22 07:37:48;;;;;;;8.20;4.67;;;17.80;99.90;;;;;;4992589;28;20943;-76
2022/08/22 07:40:22;;;;;;;5.80;4.50;;;17.80;99.90;;;;;;4992810;28;20540;-76
2022/08/22 07:42:52;;;;;;;5.90;4.10;;;17.90;99.90;;;;;;4992625;28;20459;-76
2022/08/22 07:45:28;;;;;;;6.33;4.17;;;18.10;99.90;;;;;;4992481;28;20470;-76
2022/08/22 07:48:06;;;;;;;5.87;4.03;;;18.10;99.90;;;;;;4992851;28;20462;-76
2022/08/22 07:50:39;;;;;;;6.73;4.67;;;18.30;99.90;;;;;;4992537;28;20558;-76
2022/08/22 07:53:17;;;;;;;6.43;4.50;;;18.40;99.90;;;;;;4992584;28;20506;-77
2022/08/22 07:55:46;;;;;;;8.27;4.20;;;18.50;99.90;;;;;;4991484;28;20503;-76
2022/08/22 07:58:15;;;;;;;6.00;4.60;;;18.60;99.90;;;;;;4993011;28;20464;-76
2022/08/22 08:00:45;;;;;;;7.20;4.20;;;18.70;99.90;;;;;;4991511;28;20943;-76
2022/08/22 08:03:12;;;;;;;6.60;4.00;;;18.90;99.90;;;;;;4992344;28;20804;-78
2022/08/22 08:05:44;;;;;;;6.80;4.70;;;19.10;99.90;;;;;;4992386;28;20462;-76
2022/08/22 08:08:25;;;;;;;7.53;4.50;;;19.30;99.90;;;;;;4992497;28;21022;-76
2022/08/22 08:10:55;;;;;;;6.97;4.27;;;19.50;99.90;;;;;;4992584;28;20845;-76
2022/08/22 08:13:26;;;;;;;4.70;4.07;;;19.60;99.90;;;;;;4992343;28;20937;-76
2022/08/22 08:15:53;;;;;;;7.83;4.20;;;19.80;99.90;;;;;;4992257;28;20830;-77
2022/08/22 08:18:24;;;;;;;5.33;4.40;;;19.80;99.90;;;;;;4992091;28;20455;-76
2022/08/22 08:20:56;;;;;;;9.33;4.53;;;20.00;99.90;;;;;;4992089;28;20592;-77
2022/08/22 08:23:26;;;;;;;5.30;4.80;;;20.10;99.90;;;;;;4991968;28;20833;-77
2022/08/22 08:26:00;;;;;;;5.07;3.97;;;20.30;99.90;;;;;;4991890;28;20470;-77
2022/08/22 08:28:33;;;;;;;4.87;4.37;;;20.40;99.90;;;;;;4992427;28;20473;-77
2022/08/22 08:31:07;;;;;;;6.97;4.83;;;20.70;99.90;;;;;;4992292;28;20541;-76
2022/08/22 08:33:37;;;;;;;8.57;5.00;;;20.90;99.90;;;;;;4992542;28;20444;-76
2022/08/22 08:36:14;;;;;;;7.07;4.50;;;20.90;99.90;;;;;;4991760;28;20838;-76
2022/08/22 08:38:48;;;;;;;7.87;5.30;;;21.00;99.90;;;;;;4992445;28;20455;-76
2022/08/22 08:41:39;;;;;;;4.90;4.13;;;21.10;99.90;;;;;;4992060;28;20495;-76
2022/08/22 08:44:21;;;;;;;9.43;4.80;;;21.40;99.90;;;;;;4993544;28;20535;-77
2022/08/22 08:47:14;;;;;;;6.57;4.83;;;21.60;99.90;;;;;;4996523;28;20431;-76
2022/08/22 08:50:10;;;;;;;4.67;4.27;;;22.10;99.90;;;;;;4995788;28;20952;-76
2022/08/22 08:53:06;;;;;;;4.20;3.80;;;22.10;99.90;;;;;;4995624;28;20446;-76
2022/08/22 08:55:47;;;;;;;4.83;3.90;;;22.20;99.90;;;;;;4995514;28;20808;-76
2022/08/22 08:58:34;;;;;;;7.67;4.97;;;22.40;99.90;;;;;;4995782;28;20454;-76
2022/08/22 09:01:11;;;;;;;5.80;5.07;;;22.70;99.90;;;;;;4995061;28;20499;-76
2022/08/22 09:04:09;;;;;;;6.63;4.70;;;22.90;99.90;;;;;;4995716;28;20490;-77
2022/08/22 09:07:17;;;;;;;6.37;4.73;;;23.30;99.90;;;;;;4995513;28;20483;-77
2022/08/22 09:10:01;;;;;;;6.07;4.73;;;23.60;99.90;;;;;;4987577;28;20813;-77
2022/08/22 09:12:59;;;;;;;4.63;4.20;;;23.90;99.90;;;;;;4995410;28;20566;-77
2022/08/22 09:15:48;;;;;;;5.10;4.60;;;24.20;99.90;;;;;;4994901;28;20462;-78
2022/08/22 09:18:39;;;;;;;5.10;4.60;;;24.70;99.90;;;;;;4995542;28;20821;-77
2022/08/22 09:21:41;;;;;;;4.43;4.00;;;25.00;99.90;;;;;;4995206;28;20491;-77
2022/08/22 09:24:42;;;;;;;5.83;4.87;;;25.00;99.90;;;;;;4995093;28;20546;-77
2022/08/22 09:27:16;;;;;;;6.50;5.53;;;25.10;99.90;;;;;;4995252;28;20467;-78
2022/08/22 09:29:49;;;;;;;7.53;4.90;;;25.10;99.90;;;;;;4995164;28;20461;-77
2022/08/22 09:32:22;;;;;;;7.07;5.37;;;25.20;99.90;;;;;;4995217;28;20482;-76
2022/08/22 09:35:04;;;;;;;7.77;5.23;;;25.20;99.90;;;;;;4994917;28;20486;-77
2022/08/22 09:37:40;;;;;;;6.13;5.53;;;25.50;99.90;;;;;;4995259;28;20446;-77
2022/08/22 09:40:14;;;;;;;5.60;4.33;;;25.50;99.90;;;;;;4995095;28;20462;-77
2022/08/22 09:42:50;;;;;;;6.00;4.87;;;25.70;99.90;;;;;;4994604;28;20599;-77
2022/08/22 09:45:44;;;;;;;6.47;4.97;;;25.80;99.90;;;;;;4994692;28;20526;-77
2022/08/22 09:48:35;;;;;;;6.70;5.40;;;26.20;99.90;;;;;;4994883;28;20503;-78
2022/08/22 09:51:13;;;;;;;5.20;4.70;;;26.90;99.90;;;;;;4994424;28;20802;-78
2022/08/22 09:54:08;;;;;;;4.40;4.00;;;27.00;99.90;;;;;;4994900;28;20501;-78
2022/08/22 09:56:38;;;;;;;7.00;4.23;;;27.10;99.90;;;;;;4993877;28;20451;-77
2022/08/22 09:59:09;;;;;;;5.97;4.53;;;27.10;99.90;;;;;;4994598;28;20458;-77
2022/08/22 10:01:43;;;;;;;8.27;4.57;;;27.20;99.90;;;;;;4993913;28;20507;-77
2022/08/22 10:04:43;;;;;;;5.23;4.67;;;27.30;99.90;;;;;;4994241;28;20936;-77
2022/08/22 10:07:34;;;;;;;5.00;3.90;;;27.30;99.90;;;;;;4994426;28;20869;-77
2022/08/22 10:10:13;;;;;;;5.63;4.20;;;27.70;99.90;;;;;;4994367;28;20455;-77
2022/08/22 10:12:50;;;;;;;4.40;3.77;;;27.70;99.90;;;;;;4994617;28;20440;-77
2022/08/22 10:15:21;;;;;;;5.80;4.03;;;27.80;99.90;;;;;;4994599;28;20439;-78
2022/08/22 10:18:01;;;;;;;4.77;4.17;;;28.00;99.90;;;;;;4994230;28;20448;-77
2022/08/22 10:20:31;;;;;;;4.93;3.70;;;28.70;99.90;;;;;;4994286;28;20462;-77
2022/08/22 10:23:13;;;;;;;4.53;3.87;;;28.80;99.90;;;;;;4994347;28;20472;-77
2022/08/22 10:25:44;;;;;;;4.30;3.73;;;28.90;99.90;;;;;;4993908;28;20467;-77
2022/08/22 10:28:32;;;;;;;4.17;3.47;;;28.90;99.90;;;;;;4994392;28;20496;-77
2022/08/22 10:31:21;;;;;;;5.23;4.20;;;29.00;99.90;;;;;;4994176;28;20475;-79
2022/08/22 10:33:59;;;;;;;4.30;3.73;;;29.20;99.90;;;;;;4994124;28;20447;-78
2022/08/22 10:36:35;;;;;;;4.73;4.23;;;29.40;99.90;;;;;;4993856;28;20458;-80
2022/08/22 10:39:06;;;;;;;5.20;3.83;;;29.80;99.90;;;;;;4993616;28;20460;-77
2022/08/22 10:41:37;;;;;;;4.53;3.70;;;29.90;99.90;;;;;;4993942;28;20598;-77
2022/08/22 10:44:14;;;;;;;5.90;3.70;;;30.00;99.90;;;;;;4993559;28;20436;-80
2022/08/22 10:46:48;;;;;;;4.40;3.53;;;30.00;99.90;;;;;;4993687;28;20466;-78
2022/08/22 10:49:25;;;;;;;7.80;3.53;;;30.10;99.90;;;;;;4993334;28;20939;-77
2022/08/22 10:51:58;;;;;;;4.27;3.10;;;30.20;99.90;;;;;;4993416;28;20476;-77
2022/08/22 10:54:41;;;;;;;5.70;3.57;;;30.30;99.90;;;;;;4993607;28;20527;-78
2022/08/22 10:57:18;;;;;;;4.83;3.83;;;30.20;99.90;;;;;;4993818;28;20523;-80
2022/08/22 10:59:54;;;;;;;4.53;3.30;;;30.50;99.90;;;;;;4993263;28;20451;-78
2022/08/22 11:02:40;;;;;;;3.37;2.97;;;30.70;99.90;;;;;;4993250;28;20538;-78
2022/08/22 11:05:27;;;;;;;8.27;3.30;;;30.80;99.90;;;;;;4993344;28;20455;-78
2022/08/22 11:08:18;;;;;;;3.83;3.20;;;30.90;99.90;;;;;;4992170;28;20463;-78
2022/08/22 11:11:14;;;;;;;4.53;3.20;;;30.70;99.90;;;;;;4993112;28;20946;-78
2022/08/22 11:13:49;;;;;;;3.20;2.90;;;30.80;99.90;;;;;;4992929;28;20858;-77
2022/08/22 11:16:29;;;;;;;4.33;3.07;;;30.90;99.90;;;;;;4992784;28;20463;-78
2022/08/22 11:19:12;;;;;;;5.10;3.40;;;31.00;99.90;;;;;;4993256;28;20455;-78
2022/08/22 11:21:50;;;;;;;4.77;3.20;;;31.30;99.90;;;;;;4992854;28;20499;-79
2022/08/22 11:24:55;;;;;;;6.27;3.50;;;31.60;99.90;;;;;;4992833;28;20467;-78
2022/08/22 11:27:34;;;;;;;7.43;3.30;;;31.70;99.90;;;;;;4992968;28;20455;-78
2022/08/22 11:30:05;;;;;;;4.30;3.40;;;31.70;99.90;;;;;;4993074;28;20460;-80
2022/08/22 11:32:38;;;;;;;4.57;3.17;;;31.80;99.90;;;;;;4993000;28;20838;-77
2022/08/22 11:35:08;;;;;;;3.20;2.50;;;31.80;99.90;;;;;;4992625;28;20444;-78
2022/08/22 11:37:47;;;;;;;3.23;2.63;;;32.00;99.90;;;;;;4992902;28;20843;-78
2022/08/22 11:40:24;;;;;;;4.30;3.33;;;32.60;99.60;;;;;;4992856;28;20459;-78
2022/08/22 11:42:58;;;;;;;3.30;2.67;;;32.60;98.30;;;;;;4992669;28;20922;-78
2022/08/22 11:45:31;;;;;;;4.93;2.87;;;32.70;97.70;;;;;;4992496;28;20455;-78
2022/08/22 11:48:01;;;;;;;4.90;2.73;;;32.60;98.30;;;;;;4992892;28;20444;-78
2022/08/22 11:50:37;;;;;;;3.93;3.10;;;32.50;98.10;;;;;;4992785;28;20459;-77
2022/08/22 11:53:18;;;;;;;4.30;3.77;;;32.40;99.10;;;;;;4992673;28;20463;-77
2022/08/22 11:55:55;;;;;;;3.87;3.57;;;32.50;97.40;;;;;;4992461;28;20455;-78
2022/08/22 11:58:41;;;;;;;5.40;2.80;;;32.40;97.70;;;;;;4992824;28;20463;-78
2022/08/22 12:01:13;;;;;;;4.13;3.30;;;32.70;96.20;;;;;;4992507;28;20522;-78
2022/08/22 12:03:59;;;;;;;3.47;3.00;;;33.30;93.40;;;;;;4992704;28;20475;-78
2022/08/22 12:06:50;;;;;;;3.37;3.00;;;33.90;93.80;;;;;;4992335;28;20446;-78
2022/08/22 12:09:45;;;;;;;3.53;3.00;;;33.60;92.00;;;;;;4992683;28;20448;-80
2022/08/22 12:12:25;;;;;;;4.10;2.77;;;33.10;93.60;;;;;;4992598;28;20831;-78
2022/08/22 12:14:59;;;;;;;5.23;3.10;;;32.90;93.60;;;;;;4992460;28;20450;-78
2022/08/22 12:18:11;;;;;;;4.73;2.90;;;32.80;94.20;;;;;;4992588;28;20809;-77
2022/08/22 12:20:54;;;;;;;5.73;2.87;;;32.80;93.20;;;;;;4996029;28;20475;-78
2022/08/22 12:23:45;;;;;;;4.10;2.60;;;32.90;92.70;;;;;;4996306;28;20980;-78
2022/08/22 12:26:21;;;;;;;3.97;2.53;;;33.40;91.70;;;;;;4996372;28;20444;-78
2022/08/22 12:29:03;;;;;;;6.67;2.80;;;33.70;90.70;;;;;;4996325;28;20451;-78
2022/08/22 12:31:36;;;;;;;3.30;2.47;;;33.80;90.90;;;;;;4996316;28;20526;-78
2022/08/22 12:34:13;;;;;;;4.93;2.97;;;33.60;90.70;;;;;;4996323;28;20443;-78
2022/08/22 12:37:03;;;;;;;9.23;2.70;;;34.20;88.50;;;;;;4996074;28;20458;-78
2022/08/22 12:40:02;;;;;;;7.60;2.97;;;34.10;90.40;;;;;;4996051;28;20455;-78
2022/08/22 12:42:52;;;;;;;5.37;3.03;;;33.90;90.00;;;;;;4996061;28;20504;-78
2022/08/22 12:45:36;;;;;;;4.00;3.00;;;33.60;90.20;;;;;;4995672;28;20969;-78
2022/08/22 12:48:14;;;;;;;6.60;3.07;;;33.40;87.90;;;;;;4995732;28;20555;-78
2022/08/22 12:50:46;;;;;;;5.07;2.97;;;34.00;86.90;;;;;;4995788;28;20471;-78
2022/08/22 12:53:37;;;;;;;3.47;2.90;;;34.10;88.20;;;;;;4996089;28;20434;-78
2022/08/22 12:56:11;;;;;;;3.70;2.80;;;34.00;85.60;;;;;;4986877;28;20832;-78
2022/08/22 12:58:59;;;;;;;4.10;2.97;;;34.20;82.70;;;;;;4995587;28;20466;-78
2022/08/22 13:01:27;;;;;;;4.57;3.07;;;34.40;81.40;;;;;;4995288;28;20491;-77
2022/08/22 13:04:00;;;;;;;4.77;3.17;;;34.20;85.80;;;;;;4995385;28;20491;-77
2022/08/22 13:06:53;;;;;;;3.10;2.80;;;33.80;87.30;;;;;;4995614;28;20455;-78
2022/08/22 13:09:29;;;;;;;7.63;2.63;;;33.90;82.50;;;;;;4995573;28;20451;-78
2022/08/22 13:12:02;;;;;;;4.70;2.90;;;34.00;84.60;;;;;;4995464;28;20967;-78
2022/08/22 13:14:33;;;;;;;2.50;2.23;;;33.90;84.60;;;;;;4995639;28;20880;-79
2022/08/22 13:17:06;;;;;;;5.47;2.63;;;33.70;84.80;;;;;;4995843;28;20905;-77
2022/08/22 13:19:45;;;;;;;4.97;3.23;;;33.60;81.80;;;;;;4995842;28;20459;-77
2022/08/22 13:22:20;;;;;;;5.40;3.10;;;33.60;81.00;;;;;;4995408;28;21069;-77
2022/08/22 13:24:51;;;;;;;9.03;3.10;;;33.50;83.50;;;;;;4995455;28;20440;-77
2022/08/22 13:27:23;;;;;;;4.90;3.03;;;33.50;83.60;;;;;;4995698;28;20448;-78
2022/08/22 13:29:55;;;;;;;4.03;2.87;;;33.40;81.70;;;;;;4994691;28;20446;-78
2022/08/22 13:32:27;;;;;;;6.37;3.50;;;33.40;83.00;;;;;;4994740;28;20475;-77
2022/08/22 13:34:56;;;;;;;3.17;2.87;;;33.30;83.20;;;;;;4995169;28;20444;-78
2022/08/22 13:37:29;;;;;;;3.70;2.80;;;33.30;81.20;;;;;;4994971;28;20460;-78
2022/08/22 13:40:01;;;;;;;2.60;2.40;;;33.20;80.60;;;;;;4995222;28;20444;-78
2022/08/22 13:42:30;;;;;;;4.60;2.70;;;32.90;83.10;;;;;;4994994;28;20499;-77
2022/08/22 13:45:04;;;;;;;4.23;2.80;;;32.70;80.40;;;;;;4994846;28;20543;-78
2022/08/22 13:47:35;;;;;;;3.60;2.60;;;32.70;82.40;;;;;;4994702;28;20819;-78
2022/08/22 13:50:11;;;;;;;3.87;2.90;;;32.70;82.50;;;;;;4995016;28;20436;-77
2022/08/22 13:52:46;;;;;;;6.50;2.93;;;32.50;80.60;;;;;;4994454;28;20459;-77
2022/08/22 13:55:17;;;;;;;3.73;2.87;;;32.40;84.00;;;;;;4994738;28;20459;-77
2022/08/22 13:57:49;;;;;;;6.50;2.87;;;32.40;83.00;;;;;;4994915;28;20440;-79
2022/08/22 14:00:49;;;;;;;6.23;3.20;;;32.40;80.60;;;;;;4994365;28;20840;-77
2022/08/22 14:03:21;;;;;;;5.00;3.00;;;32.30;82.60;;;;;;4994265;28;20487;-77
2022/08/22 14:05:53;;;;;;;3.70;2.50;;;32.30;82.00;;;;;;4994446;28;20458;-77
2022/08/22 14:08:24;;;;;;;4.30;3.10;;;32.30;80.70;;;;;;4994683;28;20440;-77
2022/08/22 14:10:57;;;;;;;4.80;2.70;;;32.30;81.80;;;;;;4994296;28;21016;-78
2022/08/22 14:13:40;;;;;;;4.70;3.03;;;32.20;80.80;;;;;;4994125;28;20452;-77
2022/08/22 14:16:13;;;;;;;4.03;2.60;;;32.00;84.80;;;;;;4994324;28;20440;-77
2022/08/22 14:18:49;;;;;;;4.80;2.73;;;32.00;81.90;;;;;;4994546;28;20451;-77
2022/08/22 14:21:24;;;;;;;3.00;2.37;;;32.00;81.40;;;;;;4994481;28;20891;-77
2022/08/22 14:23:53;;;;;;;5.27;2.80;;;31.90;80.10;;;;;;4993826;28;20491;-77
2022/08/22 14:26:25;;;;;;;4.60;2.53;;;31.80;81.20;;;;;;4994147;28;20466;-77
2022/08/22 14:28:55;;;;;;;3.70;2.60;;;31.60;82.30;;;;;;4994288;28;20462;-78
2022/08/22 14:31:24;;;;;;;5.30;3.20;;;31.40;83.10;;;;;;4993982;28;20484;-77
2022/08/22 14:33:57;;;;;;;6.30;3.50;;;31.20;85.00;;;;;;4993973;28;20456;-77
2022/08/22 14:36:29;;;;;;;3.47;2.60;;;31.20;86.90;;;;;;4993883;28;20458;-78
2022/08/22 14:39:02;;;;;;;3.70;2.37;;;31.20;85.60;;;;;;4994163;28;20447;-77
2022/08/22 14:41:33;;;;;;;3.07;2.63;;;31.30;86.00;;;;;;4993824;28;20483;-77
2022/08/22 14:44:04;;;;;;;4.80;2.40;;;31.30;85.00;;;;;;4993483;28;21034;-77
2022/08/22 14:46:37;;;;;;;3.57;2.70;;;31.40;85.50;;;;;;4993974;28;20450;-77
2022/08/22 14:49:20;;;;;;;4.27;2.70;;;31.50;83.40;;;;;;4993818;28;20499;-77
2022/08/22 14:51:51;;;;;;;6.90;2.60;;;31.50;84.30;;;;;;4993592;28;20987;-77
2022/08/22 14:54:21;;;;;;;4.20;2.40;;;31.50;84.30;;;;;;4993462;28;20463;-78
2022/08/22 14:56:51;;;;;;;4.27;2.40;;;31.50;83.30;;;;;;4993600;28;20462;-76
2022/08/22 14:59:32;;;;;;;4.80;2.93;;;31.50;84.00;;;;;;4993551;28;20440;-77
2022/08/22 15:02:04;;;;;;;3.17;2.67;;;31.40;82.20;;;;;;4993120;28;20491;-77
2022/08/22 15:04:37;;;;;;;3.20;2.43;;;31.40;82.90;;;;;;4993190;28;20517;-77
2022/08/22 15:07:06;;;;;;;5.20;2.53;;;31.30;83.50;;;;;;4993439;28;20615;-77
2022/08/22 15:09:37;;;;;;;4.20;2.87;;;31.10;82.20;;;;;;4993144;28;20958;-78
2022/08/22 15:12:21;;;;;;;2.70;2.40;;;31.10;84.80;;;;;;4993358;28;20565;-77
2022/08/22 15:14:51;;;;;;;7.10;2.80;;;31.20;85.70;;;;;;4993395;28;20546;-77
2022/08/22 15:17:38;;;;;;;4.83;2.83;;;31.20;83.50;;;;;;4993595;28;20499;-77
2022/08/22 15:20:21;;;;;;;6.83;2.77;;;31.30;83.90;;;;;;4992799;28;20460;-77
2022/08/22 15:22:50;;;;;;;3.27;2.73;;;31.30;83.70;;;;;;4993246;28;20530;-77
2022/08/22 15:25:21;;;;;;;2.90;2.43;;;31.50;82.00;;;;;;4992826;28;20462;-77
2022/08/22 15:27:53;;;;;;;4.83;2.63;;;31.50;83.00;;;;;;4993040;28;20456;-77
2022/08/22 15:30:34;;;;;;;4.67;2.80;;;31.60;83.20;;;;;;4992873;28;20456;-78
2022/08/22 15:33:09;;;;;;;4.37;2.93;;;31.60;82.10;;;;;;4992817;28;20454;-77
2022/08/22 15:35:39;;;;;;;4.20;2.83;;;31.60;81.70;;;;;;4992574;28;20455;-77
2022/08/22 15:38:22;;;;;;;3.30;2.50;;;31.60;84.20;;;;;;4992978;28;20447;-77
2022/08/22 15:40:50;;;;;;;3.43;2.77;;;31.60;82.70;;;;;;4992485;28;20475;-77
2022/08/22 15:43:30;;;;;;;5.83;2.40;;;31.60;82.70;;;;;;4992757;28;20502;-77
2022/08/22 15:46:24;;;;;;;5.90;2.70;;;31.80;80.60;;;;;;4992593;28;20460;-77
2022/08/22 15:48:56;;;;;;;7.83;2.53;;;31.70;81.10;;;;;;4992644;28;20546;-77
2022/08/22 15:51:39;;;;;;;3.60;2.87;;;31.70;83.60;;;;;;4992165;28;20471;-77
2022/08/22 15:54:10;;;;;;;5.27;3.10;;;31.60;80.30;;;;;;4991637;28;20904;-77
2022/08/22 15:56:40;;;;;;;3.30;2.70;;;31.70;82.40;;;;;;4992457;28;20955;-77
2022/08/22 15:59:34;;;;;;;4.50;3.00;;;31.80;80.80;;;;;;4992350;28;20834;-77
2022/08/22 16:02:05;;;;;;;4.17;2.90;;;31.80;81.40;;;;;;4992175;28;20915;-77
2022/08/22 16:04:48;;;;;;;4.47;2.53;;;31.70;81.60;;;;;;4992131;28;21071;-77
2022/08/22 16:07:37;;;;;;;6.90;2.20;;;31.60;82.00;;;;;;4992784;28;20841;-76
2022/08/22 16:10:12;;;;;;;4.10;2.97;;;31.60;82.10;;;;;;4992283;28;20455;-77
2022/08/22 16:12:44;;;;;;;3.80;2.60;;;31.60;81.60;;;;;;4992645;28;20478;-78
2022/08/22 16:15:44;;;;;;;2.40;2.20;;;31.50;81.30;;;;;;5015585;23;20503;-74
2022/08/22 16:18:50;;;;;;;3.43;2.90;;;31.40;81.20;;;;;;4992144;28;20944;-74
2022/08/22 16:21:37;;;;;;;3.83;2.60;;;31.30;80.90;;;;;;4992268;28;20465;-74
2022/08/22 16:24:53;;;;;;;2.80;2.30;;;31.10;80.20;;;;;;4992338;28;20586;-75
2022/08/22 16:27:24;;;;;;;3.63;2.70;;;30.80;80.60;;;;;;4973012;28;20467;-74
2022/08/22 16:30:18;;;;;;;6.07;3.10;;;30.60;80.40;;;;;;4973186;28;20460;-74
2022/08/22 16:32:54;;;;;;;3.53;2.77;;;30.50;81.70;;;;;;4972791;28;20908;-74
2022/08/22 16:36:03;;;;;;;6.13;2.70;;;30.40;81.70;;;;;;4972601;28;20483;-74
2022/08/22 16:38:39;;;;;;;5.13;2.80;;;30.20;82.60;;;;;;4953062;28;20471;-74
2022/08/22 16:41:28;;;;;;;4.70;2.33;;;30.20;83.90;;;;;;4973011;28;20442;-75
2022/08/22 16:44:45;;;;;;;4.03;2.47;;;30.10;82.40;;;;;;4972875;28;20472;-74
2022/08/22 16:47:15;;;;;;;3.93;2.63;;;29.90;82.60;;;;;;4894010;29;20850;-74
2022/08/22 16:50:04;;;;;;;3.77;2.90;;;29.80;82.60;;;;;;4893875;29;20477;-75
2022/08/22 16:53:02;;;;;;;5.00;2.60;;;29.80;84.50;;;;;;4951331;28;20999;-75
2022/08/22 16:55:51;;;;;;;3.70;2.20;;;29.70;83.90;;;;;;4972478;28;20476;-74
2022/08/22 16:58:37;;;;;;;4.70;2.90;;;29.60;86.20;;;;;;4972436;28;20877;-75
2022/08/22 17:01:13;;;;;;;3.90;2.53;;;29.50;84.70;;;;;;4972483;28;20448;-74
2022/08/22 17:03:47;;;;;;;3.50;2.40;;;29.50;84.60;;;;;;4972705;28;20486;-74
2022/08/22 17:06:31;;;;;;;4.00;2.60;;;29.40;85.40;;;;;;4974973;28;20490;-74
2022/08/22 17:09:13;;;;;;;4.00;2.73;;;29.40;85.40;;;;;;4976616;28;20456;-75
2022/08/22 17:11:48;;;;;;;4.37;3.40;;;29.30;91.90;;;;;;4976132;28;20469;-75
2022/08/22 17:14:33;;;;;;;4.13;3.07;;;29.20;94.70;;;;;;4976023;28;20437;-75
2022/08/22 17:17:16;;;;;;;4.90;3.00;;;29.10;94.30;;;;;;4975564;28;20492;-75
2022/08/22 17:19:55;;;;;;;4.30;3.17;;;29.00;97.90;;;;;;4976158;28;20447;-75
2022/08/22 17:22:30;;;;;;;3.23;2.50;;;28.90;95.20;;;;;;4975728;28;20955;-73
2022/08/22 17:25:14;;;;;;;4.13;2.60;;;28.70;92.70;;;;;;4975662;28;20484;-73
2022/08/22 17:27:44;;;;;;;4.00;2.97;;;28.60;93.90;;;;;;4975882;28;20463;-73
2022/08/22 17:30:20;;;;;;;6.97;3.33;;;28.50;94.60;;;;;;4975798;28;20460;-74
2022/08/22 17:33:02;;;;;;;5.70;2.90;;;28.30;92.80;;;;;;4975770;28;20456;-74
2022/08/22 17:35:43;;;;;;;7.00;2.60;;;28.30;94.80;;;;;;4975068;28;20860;-74
2022/08/22 17:38:18;;;;;;;5.83;2.63;;;28.10;93.40;;;;;;4975661;28;20567;-73
2022/08/22 17:40:57;;;;;;;5.23;3.47;;;28.10;97.60;;;;;;4975758;28;20464;-73
2022/08/22 17:43:34;;;;;;;4.80;3.37;;;28.00;97.40;;;;;;4975641;28;20451;-73